Time;durP1;ratioP1;P1;durP2;ratioP2;P2;SDS_P1;SDS_P2;PMS_P1;PMS_P2;Temp;Humidity;BMP_temperature;BMP_pressure;BME280_temperature;BME280_humidity;BME280_pressure;Samples;Min_cycle;Max_cycle;Signal;HPM_P1;HPM_P2
2021/05/29 00:03:16;;;;;;;3.83;2.90;;;;;;;;;;12906614;23;20179;-85
2021/05/29 00:08:18;;;;;;;4.70;2.80;;;;;;;;;;12906891;23;20177;-85
2021/05/29 00:13:23;;;;;;;7.77;4.50;;;;;;;;;;12908911;23;20182;-84
2021/05/29 00:18:25;;;;;;;5.23;3.23;;;;;;;;;;12911073;23;20202;-84
2021/05/29 00:23:27;;;;;;;4.10;3.03;;;;;;;;;;12915046;23;20186;-85
2021/05/29 00:28:31;;;;;;;5.87;3.10;;;;;;;;;;12890694;23;20194;-84
2021/05/29 00:33:33;;;;;;;4.70;2.80;;;;;;;;;;12909421;23;20499;-85
2021/05/29 00:38:36;;;;;;;5.67;3.33;;;;;;;;;;12911423;23;20217;-85
2021/05/29 00:43:39;;;;;;;4.30;3.20;;;;;;;;;;12911999;23;20542;-85
2021/05/29 00:48:42;;;;;;;6.60;3.40;;;;;;;;;;12886551;23;20214;-85
2021/05/29 00:53:45;;;;;;;4.13;3.27;;;;;;;;;;12891253;22;20415;-85
2021/05/29 00:58:48;;;;;;;4.90;3.40;;;;;;;;;;12888439;23;20261;-85
2021/05/29 01:03:51;;;;;;;3.47;2.93;;;;;;;;;;12907845;23;20653;-84
2021/05/29 01:08:53;;;;;;;5.03;3.17;;;;;;;;;;12910127;23;20691;-83
2021/05/29 01:13:59;;;;;;;4.13;3.13;;;;;;;;;;12887952;23;20175;-86
2021/05/29 01:19:02;;;;;;;4.83;3.37;;;;;;;;;;12908485;23;20195;-85
2021/05/29 01:24:05;;;;;;;4.27;2.83;;;;;;;;;;12907832;23;20190;-84
2021/05/29 01:29:07;;;;;;;4.17;3.20;;;;;;;;;;12908625;23;20270;-85
2021/05/29 01:34:12;;;;;;;4.57;3.20;;;;;;;;;;12904885;23;20175;-85
2021/05/29 01:39:15;;;;;;;5.27;3.33;;;;;;;;;;12910710;23;20203;-85
2021/05/29 01:44:18;;;;;;;5.13;3.20;;;;;;;;;;12909101;23;20792;-84
2021/05/29 01:49:20;;;;;;;4.97;3.43;;;;;;;;;;12907622;23;20271;-85
2021/05/29 01:54:23;;;;;;;8.73;4.13;;;;;;;;;;12906151;22;20556;-84
2021/05/29 01:59:26;;;;;;;6.63;3.27;;;;;;;;;;12907479;23;20199;-85
2021/05/29 02:04:29;;;;;;;6.67;3.30;;;;;;;;;;12883914;23;20649;-86
2021/05/29 02:09:32;;;;;;;6.53;3.63;;;;;;;;;;12909619;23;20186;-85
2021/05/29 02:14:35;;;;;;;5.47;3.43;;;;;;;;;;12887617;23;20175;-84
2021/05/29 02:19:38;;;;;;;6.27;3.60;;;;;;;;;;12906168;23;20211;-84
2021/05/29 02:24:41;;;;;;;5.90;3.30;;;;;;;;;;12909880;23;20655;-86
2021/05/29 02:29:44;;;;;;;4.37;3.40;;;;;;;;;;12908835;23;20175;-85
2021/05/29 02:34:46;;;;;;;6.47;3.50;;;;;;;;;;12884339;23;20194;-85
2021/05/29 02:39:49;;;;;;;7.53;3.73;;;;;;;;;;12908981;23;20213;-85
2021/05/29 02:44:52;;;;;;;5.23;3.50;;;;;;;;;;12905888;23;20175;-84
2021/05/29 02:49:55;;;;;;;4.10;3.20;;;;;;;;;;12885196;23;20180;-85
2021/05/29 02:54:58;;;;;;;4.90;3.27;;;;;;;;;;12907425;22;20249;-85
2021/05/29 03:00:01;;;;;;;6.03;3.53;;;;;;;;;;12909252;23;20594;-85
2021/05/29 03:05:03;;;;;;;6.10;3.70;;;;;;;;;;12903665;23;20530;-85
2021/05/29 03:10:07;;;;;;;3.93;3.33;;;;;;;;;;12907601;23;20703;-85
2021/05/29 03:15:11;;;;;;;5.00;3.43;;;;;;;;;;12907878;23;20183;-87
2021/05/29 03:20:15;;;;;;;4.53;3.70;;;;;;;;;;12907325;23;20199;-88
2021/05/29 03:25:18;;;;;;;4.40;3.50;;;;;;;;;;12908050;23;20212;-87
2021/05/29 03:30:22;;;;;;;4.37;3.20;;;;;;;;;;12908829;23;20230;-86
2021/05/29 03:35:24;;;;;;;4.40;3.40;;;;;;;;;;12906469;23;20182;-87
2021/05/29 03:40:27;;;;;;;5.80;3.10;;;;;;;;;;12889005;23;20686;-86
2021/05/29 03:45:30;;;;;;;4.00;3.30;;;;;;;;;;12886877;23;20207;-87
2021/05/29 03:50:38;;;;;;;4.23;3.47;;;;;;;;;;12887478;23;20225;-88
2021/05/29 03:55:41;;;;;;;6.27;3.60;;;;;;;;;;12887989;22;20249;-88
2021/05/29 04:00:44;;;;;;;5.67;3.30;;;;;;;;;;12909653;23;20596;-87
2021/05/29 04:05:47;;;;;;;4.40;3.50;;;;;;;;;;12909209;22;20181;-90
2021/05/29 04:10:50;;;;;;;7.17;3.50;;;;;;;;;;12891140;23;20182;-88
2021/05/29 04:15:53;;;;;;;4.20;3.27;;;;;;;;;;12912577;23;20632;-88
2021/05/29 04:20:57;;;;;;;4.83;3.43;;;;;;;;;;12912764;23;20202;-87
2021/05/29 04:26:01;;;;;;;3.80;3.40;;;;;;;;;;12891864;23;20942;-89
2021/05/29 04:31:03;;;;;;;4.87;3.40;;;;;;;;;;12909508;23;20597;-87
2021/05/29 04:36:06;;;;;;;5.50;3.40;;;;;;;;;;12894042;23;20177;-87
2021/05/29 04:41:09;;;;;;;5.50;3.57;;;;;;;;;;12913950;23;20691;-88
2021/05/29 04:46:12;;;;;;;5.03;3.37;;;;;;;;;;12895717;23;20520;-87
2021/05/29 04:51:15;;;;;;;5.07;3.60;;;;;;;;;;12914462;22;20253;-88
2021/05/29 04:56:18;;;;;;;5.17;3.67;;;;;;;;;;12916403;23;20275;-89
2021/05/29 05:01:23;;;;;;;5.17;3.60;;;;;;;;;;12916495;23;20257;-87
2021/05/29 05:06:26;;;;;;;6.23;3.40;;;;;;;;;;12921797;23;20229;-89
2021/05/29 05:11:29;;;;;;;6.97;3.33;;;;;;;;;;12919647;23;20214;-87
2021/05/29 05:16:32;;;;;;;5.97;3.77;;;;;;;;;;12928174;23;20187;-88
2021/05/29 05:21:34;;;;;;;6.10;3.80;;;;;;;;;;12917804;23;20179;-81
2021/05/29 05:26:38;;;;;;;8.37;3.80;;;;;;;;;;12915015;23;20174;-82
2021/05/29 05:31:42;;;;;;;5.53;4.00;;;;;;;;;;12909942;23;20174;-79
2021/05/29 05:36:44;;;;;;;10.00;4.57;;;;;;;;;;12892932;23;20245;-88
2021/05/29 05:41:47;;;;;;;6.03;4.03;;;;;;;;;;12909839;23;20405;-82
2021/05/29 05:46:50;;;;;;;5.80;3.97;;;;;;;;;;12909384;23;20179;-81
2021/05/29 05:51:52;;;;;;;6.67;4.30;;;;;;;;;;12909553;22;20619;-79
2021/05/29 05:56:55;;;;;;;8.80;4.83;;;;;;;;;;12889333;23;20226;-82
2021/05/29 06:01:58;;;;;;;8.93;4.57;;;;;;;;;;12908871;23;20182;-85
2021/05/29 06:07:01;;;;;;;6.00;4.50;;;;;;;;;;12912395;23;20179;-84
2021/05/29 06:12:05;;;;;;;10.23;5.10;;;;;;;;;;12888200;23;20254;-83
2021/05/29 06:22:28;;;;;;;7.87;5.00;;;;;;;;;;12887971;23;20174;-83
2021/05/29 06:27:32;;;;;;;9.40;5.40;;;;;;;;;;12889012;23;20216;-83
2021/05/29 06:32:35;;;;;;;9.97;5.37;;;;;;;;;;12885235;23;20179;-83
2021/05/29 06:37:38;;;;;;;8.83;5.40;;;;;;;;;;12909753;23;20543;-83
2021/05/29 06:42:41;;;;;;;13.60;5.30;;;;;;;;;;12909636;23;20197;-83
2021/05/29 06:47:44;;;;;;;11.10;5.97;;;;;;;;;;12908835;23;20175;-82
2021/05/29 06:52:50;;;;;;;11.50;5.17;;;;;;;;;;12907238;22;20282;-84
2021/05/29 07:03:14;;;;;;;12.47;6.13;;;;;;;;;;12905539;23;20181;-84
2021/05/29 07:08:17;;;;;;;10.40;5.33;;;;;;;;;;12910529;23;20183;-82
2021/05/29 07:13:21;;;;;;;12.70;5.57;;;;;;;;;;12908927;23;20510;-83
2021/05/29 07:18:27;;;;;;;9.87;5.90;;;;;;;;;;12906891;23;20731;-82
2021/05/29 07:23:30;;;;;;;12.33;6.77;;;;;;;;;;12908463;23;20178;-82
2021/05/29 07:28:34;;;;;;;10.73;6.23;;;;;;;;;;12910096;23;20186;-83
2021/05/29 07:33:36;;;;;;;10.60;6.23;;;;;;;;;;12907913;23;20251;-83
2021/05/29 07:38:39;;;;;;;9.80;6.47;;;;;;;;;;12907321;23;20215;-83
2021/05/29 07:43:43;;;;;;;10.53;6.50;;;;;;;;;;12909265;23;20189;-84
2021/05/29 07:48:46;;;;;;;13.10;7.07;;;;;;;;;;12884365;23;20170;-81
2021/05/29 07:53:48;;;;;;;12.27;7.67;;;;;;;;;;12908915;22;20218;-83
2021/05/29 07:58:53;;;;;;;14.83;7.77;;;;;;;;;;12885289;23;20213;-82
2021/05/29 08:03:55;;;;;;;12.17;7.20;;;;;;;;;;12904544;23;20179;-82
2021/05/29 08:08:58;;;;;;;14.70;8.07;;;;;;;;;;12907337;23;20182;-84
2021/05/29 08:14:01;;;;;;;11.93;6.70;;;;;;;;;;12887221;23;20214;-83
2021/05/29 08:19:08;;;;;;;11.00;7.30;;;;;;;;;;12905347;23;20220;-83
2021/05/29 08:24:11;;;;;;;9.50;6.77;;;;;;;;;;12910044;23;20178;-83
2021/05/29 08:29:15;;;;;;;12.73;7.27;;;;;;;;;;12908180;23;20197;-83
2021/05/29 08:34:18;;;;;;;14.00;6.97;;;;;;;;;;12885649;23;20175;-82
2021/05/29 08:39:20;;;;;;;10.23;6.97;;;;;;;;;;12911203;23;20240;-82
2021/05/29 08:44:24;;;;;;;13.97;8.00;;;;;;;;;;12912144;23;20734;-82
2021/05/29 08:49:26;;;;;;;12.73;8.10;;;;;;;;;;12907957;23;20182;-82
2021/05/29 08:54:30;;;;;;;12.97;8.00;;;;;;;;;;12914319;22;20261;-82
2021/05/29 08:59:33;;;;;;;13.80;8.00;;;;;;;;;;12892166;23;20207;-83
2021/05/29 09:04:56;;;;;;;13.53;7.20;;;;;;;;;;12890339;23;20294;-83
2021/05/29 09:10:19;;;;;;;9.97;6.40;;;;;;;;;;12890612;23;20175;-83
2021/05/29 09:15:22;;;;;;;12.53;6.57;;;;;;;;;;12915486;23;20628;-84
2021/05/29 09:20:25;;;;;;;11.17;6.50;;;;;;;;;;12909774;23;20690;-81
2021/05/29 09:25:28;;;;;;;10.30;6.47;;;;;;;;;;12913782;23;20168;-83
2021/05/29 09:30:38;;;;;;;9.13;6.10;;;;;;;;;;12913093;23;20174;-82
2021/05/29 09:35:41;;;;;;;11.43;6.20;;;;;;;;;;12886337;23;20559;-82
2021/05/29 09:40:50;;;;;;;9.00;6.20;;;;;;;;;;12911089;23;20827;-81
2021/05/29 09:46:01;;;;;;;11.47;6.73;;;;;;;;;;12907367;23;20205;-83
2021/05/29 09:51:07;;;;;;;8.77;5.90;;;;;;;;;;12909823;23;20959;-83
2021/05/29 09:56:22;;;;;;;8.80;5.63;;;;;;;;;;12907441;22;20202;-85
2021/05/29 10:01:39;;;;;;;9.73;6.40;;;;;;;;;;12908324;23;20214;-83
2021/05/29 10:06:42;;;;;;;10.20;6.20;;;;;;;;;;12908619;23;20266;-84
2021/05/29 10:11:44;;;;;;;10.87;6.00;;;;;;;;;;12909595;23;20261;-85
2021/05/29 10:16:49;;;;;;;8.90;6.10;;;;;;;;;;12906805;23;20182;-83
2021/05/29 10:21:52;;;;;;;9.47;7.10;;;;;;;;;;12889715;23;20202;-84
2021/05/29 10:26:55;;;;;;;11.37;7.20;;;;;;;;;;12886674;23;20186;-84
2021/05/29 10:32:14;;;;;;;9.33;5.90;;;;;;;;;;12886622;23;20751;-83
2021/05/29 10:37:26;;;;;;;9.57;5.60;;;;;;;;;;12887360;23;20171;-82
2021/05/29 10:42:30;;;;;;;13.80;6.50;;;;;;;;;;12907930;23;20503;-82
2021/05/29 10:47:38;;;;;;;11.17;7.60;;;;;;;;;;12906001;23;20171;-83
2021/05/29 10:52:50;;;;;;;9.30;7.10;;;;;;;;;;12907089;22;20202;-83
2021/05/29 10:57:54;;;;;;;9.70;7.17;;;;;;;;;;12904563;23;20213;-83
2021/05/29 11:03:11;;;;;;;10.80;7.37;;;;;;;;;;12906756;23;20179;-83
2021/05/29 11:08:32;;;;;;;13.00;7.13;;;;;;;;;;12906134;23;20640;-84
2021/05/29 11:13:49;;;;;;;9.97;6.10;;;;;;;;;;12910009;23;20569;-83
2021/05/29 11:19:09;;;;;;;8.97;5.63;;;;;;;;;;12902468;23;20207;-84
2021/05/29 11:24:17;;;;;;;9.20;5.37;;;;;;;;;;12887529;23;20167;-84
2021/05/29 11:29:20;;;;;;;8.90;5.57;;;;;;;;;;12905420;23;20175;-84
2021/05/29 11:34:22;;;;;;;8.73;5.20;;;;;;;;;;12902685;23;20177;-84
2021/05/29 11:39:26;;;;;;;8.07;5.13;;;;;;;;;;12908760;23;20325;-84
2021/05/29 11:44:30;;;;;;;10.77;4.40;;;;;;;;;;12906388;23;20167;-83
2021/05/29 11:49:36;;;;;;;6.97;4.90;;;;;;;;;;12884785;23;20180;-82
2021/05/29 11:54:40;;;;;;;8.20;4.73;;;;;;;;;;12885245;22;20194;-84
2021/05/29 11:59:43;;;;;;;8.97;4.60;;;;;;;;;;12885017;23;20211;-83
2021/05/29 12:04:50;;;;;;;5.77;4.20;;;;;;;;;;12902571;23;20258;-84
2021/05/29 12:09:57;;;;;;;6.33;4.27;;;;;;;;;;12909679;23;20178;-83
2021/05/29 12:15:00;;;;;;;7.80;4.27;;;;;;;;;;12909352;23;20179;-81
2021/05/29 12:20:03;;;;;;;10.10;4.60;;;;;;;;;;12907875;23;20203;-83
2021/05/29 12:25:09;;;;;;;7.67;4.67;;;;;;;;;;12911670;23;20185;-83
2021/05/29 12:30:13;;;;;;;6.87;4.67;;;;;;;;;;12892538;23;20171;-82
2021/05/29 12:35:28;;;;;;;6.43;4.13;;;;;;;;;;12908192;23;20536;-81
2021/05/29 12:40:31;;;;;;;6.33;4.10;;;;;;;;;;12913846;23;20205;-81
2021/05/29 12:45:33;;;;;;;6.20;3.93;;;;;;;;;;12910397;23;20183;-82
2021/05/29 12:50:38;;;;;;;5.60;3.80;;;;;;;;;;12909049;23;20183;-83
2021/05/29 12:55:41;;;;;;;5.67;3.87;;;;;;;;;;12888918;22;20981;-82
2021/05/29 13:00:54;;;;;;;6.40;4.00;;;;;;;;;;12910836;23;20995;-82
2021/05/29 13:11:32;;;;;;;5.30;4.27;;;;;;;;;;12777783;23;20608;-82
2021/05/29 13:16:49;;;;;;;5.23;3.97;;;;;;;;;;12885793;23;20175;-83
2021/05/29 13:21:53;;;;;;;6.07;4.13;;;;;;;;;;12888063;23;20277;-83
2021/05/29 13:26:56;;;;;;;8.00;4.13;;;;;;;;;;12901679;23;20559;-82
2021/05/29 13:31:59;;;;;;;5.87;4.10;;;;;;;;;;12909664;23;20576;-83
2021/05/29 13:37:01;;;;;;;5.83;3.60;;;;;;;;;;12889232;23;20195;-82
2021/05/29 13:42:09;;;;;;;6.27;3.70;;;;;;;;;;12911175;23;20293;-81
2021/05/29 13:47:12;;;;;;;7.03;3.90;;;;;;;;;;12907354;23;20198;-83
2021/05/29 13:52:15;;;;;;;9.70;4.33;;;;;;;;;;12911232;22;20711;-81
2021/05/29 13:57:18;;;;;;;5.60;3.63;;;;;;;;;;12916404;23;20197;-82
2021/05/29 14:02:21;;;;;;;8.17;3.90;;;;;;;;;;12909893;23;20313;-81
2021/05/29 14:07:23;;;;;;;6.17;3.77;;;;;;;;;;12911938;23;20175;-82
2021/05/29 14:12:26;;;;;;;7.27;4.23;;;;;;;;;;12911178;23;20619;-82
2021/05/29 14:17:29;;;;;;;5.43;3.80;;;;;;;;;;12908448;23;20503;-81
2021/05/29 14:22:31;;;;;;;6.57;3.70;;;;;;;;;;12886911;23;20556;-81
2021/05/29 14:27:34;;;;;;;6.37;3.70;;;;;;;;;;12889846;23;20288;-83
2021/05/29 14:32:38;;;;;;;5.53;3.73;;;;;;;;;;12884153;23;20606;-83
2021/05/29 14:37:42;;;;;;;5.90;3.47;;;;;;;;;;12890299;23;20182;-81
2021/05/29 14:42:46;;;;;;;5.00;3.40;;;;;;;;;;12908015;23;20206;-81
2021/05/29 14:47:49;;;;;;;7.17;3.50;;;;;;;;;;12886073;23;20258;-82
2021/05/29 14:52:52;;;;;;;6.00;3.40;;;;;;;;;;12907396;22;20698;-81
2021/05/29 14:57:55;;;;;;;5.03;3.10;;;;;;;;;;12888783;23;20183;-82
2021/05/29 15:02:59;;;;;;;6.97;3.60;;;;;;;;;;12905557;23;21067;-82
2021/05/29 15:08:02;;;;;;;6.10;3.50;;;;;;;;;;12889444;23;20172;-81
2021/05/29 15:13:06;;;;;;;4.80;3.40;;;;;;;;;;12907366;23;20244;-83
2021/05/29 15:18:08;;;;;;;7.10;3.27;;;;;;;;;;12907916;23;20179;-81
2021/05/29 15:23:11;;;;;;;5.33;3.20;;;;;;;;;;12906730;23;20629;-82
2021/05/29 15:28:14;;;;;;;5.63;3.03;;;;;;;;;;12908638;23;20175;-82
2021/05/29 15:33:16;;;;;;;6.57;3.53;;;;;;;;;;12904093;23;20246;-82
2021/05/29 15:38:19;;;;;;;6.57;3.50;;;;;;;;;;12888511;23;20175;-81
2021/05/29 15:43:22;;;;;;;6.57;3.40;;;;;;;;;;12893569;23;20217;-82
2021/05/29 15:48:25;;;;;;;9.53;3.70;;;;;;;;;;12885482;23;20179;-81
2021/05/29 15:53:27;;;;;;;8.73;3.40;;;;;;;;;;12886077;22;20205;-81
2021/05/29 15:58:31;;;;;;;5.13;3.80;;;;;;;;;;12887505;23;20662;-82
2021/05/29 16:03:33;;;;;;;7.67;3.90;;;;;;;;;;12904564;23;20814;-82
2021/05/29 16:08:35;;;;;;;5.80;4.13;;;;;;;;;;12910549;23;20205;-82
2021/05/29 16:13:40;;;;;;;8.30;4.03;;;;;;;;;;12904677;23;20736;-83
2021/05/29 16:18:43;;;;;;;5.80;3.63;;;;;;;;;;12885292;23;20176;-82
2021/05/29 16:23:46;;;;;;;8.40;4.10;;;;;;;;;;12908584;23;20172;-83
2021/05/29 16:28:49;;;;;;;7.77;4.00;;;;;;;;;;12907903;23;20178;-82
2021/05/29 16:33:54;;;;;;;8.13;4.03;;;;;;;;;;12904270;23;20171;-82
2021/05/29 16:38:56;;;;;;;5.70;3.77;;;;;;;;;;12906462;23;20202;-81
2021/05/29 16:44:00;;;;;;;7.43;3.70;;;;;;;;;;12907726;23;20172;-83
2021/05/29 16:49:04;;;;;;;6.50;3.83;;;;;;;;;;12881459;23;20175;-84
2021/05/29 16:54:07;;;;;;;7.23;4.30;;;;;;;;;;12885699;22;20213;-81
2021/05/29 16:59:10;;;;;;;8.80;4.20;;;;;;;;;;12909852;23;20604;-81
2021/05/29 17:04:14;;;;;;;7.50;4.07;;;;;;;;;;12886586;23;20751;-82
2021/05/29 17:09:18;;;;;;;6.13;3.93;;;;;;;;;;12911017;23;20200;-82
2021/05/29 17:14:21;;;;;;;6.43;3.70;;;;;;;;;;12911028;23;20667;-81
2021/05/29 17:19:24;;;;;;;5.80;3.53;;;;;;;;;;12906492;23;20273;-82
2021/05/29 17:24:26;;;;;;;10.00;4.03;;;;;;;;;;12898152;23;21099;-83
2021/05/29 17:29:32;;;;;;;9.07;4.17;;;;;;;;;;12908556;23;20216;-82
2021/05/29 17:34:36;;;;;;;7.27;4.07;;;;;;;;;;12909189;23;20616;-82
2021/05/29 17:39:38;;;;;;;7.23;3.87;;;;;;;;;;12904178;23;20206;-81
2021/05/29 17:44:42;;;;;;;7.87;3.90;;;;;;;;;;12910509;23;20661;-82
2021/05/29 17:49:44;;;;;;;9.13;4.57;;;;;;;;;;12890545;23;20186;-82
2021/05/29 17:54:47;;;;;;;10.13;4.80;;;;;;;;;;12891853;22;20214;-82
2021/05/29 18:00:03;;;;;;;6.43;3.87;;;;;;;;;;12888980;23;20592;-81
2021/05/29 18:05:06;;;;;;;6.33;4.13;;;;;;;;;;12908376;23;20171;-81
2021/05/29 18:10:09;;;;;;;11.27;4.57;;;;;;;;;;12888696;23;20715;-83
2021/05/29 18:15:13;;;;;;;7.93;4.23;;;;;;;;;;12891625;23;20163;-83
2021/05/29 18:20:16;;;;;;;7.07;4.10;;;;;;;;;;12908345;23;20218;-83
2021/05/29 18:25:19;;;;;;;9.60;4.80;;;;;;;;;;12913066;23;20519;-83
2021/05/29 18:30:22;;;;;;;7.80;4.53;;;;;;;;;;12890258;23;20175;-83
2021/05/29 18:35:25;;;;;;;6.70;3.93;;;;;;;;;;12890724;23;20334;-82
2021/05/29 18:40:27;;;;;;;9.77;4.23;;;;;;;;;;12911731;23;20250;-82
2021/05/29 18:45:30;;;;;;;7.93;5.23;;;;;;;;;;12891342;23;20684;-83
2021/05/29 18:50:33;;;;;;;7.50;4.40;;;;;;;;;;12905235;23;20180;-83
2021/05/29 18:55:35;;;;;;;7.53;4.47;;;;;;;;;;12911216;22;20290;-84
2021/05/29 19:06:18;;;;;;;7.33;4.67;;;;;;;;;;12910016;23;20245;-82
2021/05/29 19:11:21;;;;;;;8.43;4.70;;;;;;;;;;12908494;23;20597;-82
2021/05/29 19:16:24;;;;;;;9.27;5.20;;;;;;;;;;12887068;23;20168;-83
2021/05/29 19:21:27;;;;;;;7.10;4.63;;;;;;;;;;12906499;23;20238;-82
2021/05/29 19:32:00;;;;;;;7.83;4.70;;;;;;;;;;12819951;23;20181;-82
2021/05/29 19:42:23;;;;;;;7.70;5.20;;;;;;;;;;12908075;23;20762;-83
2021/05/29 20:25:08;;;;;;;9.03;4.80;;;;;;;;;;12887026;23;20186;-83
2021/05/29 20:30:11;;;;;;;7.97;4.30;;;;;;;;;;12887911;23;21001;-83
2021/05/29 20:35:14;;;;;;;7.03;4.40;;;;;;;;;;12895008;23;20179;-83
2021/05/29 20:40:18;;;;;;;6.73;4.40;;;;;;;;;;12893275;23;20210;-83
2021/05/29 20:45:27;;;;;;;7.57;4.30;;;;;;;;;;12889612;23;20505;-83
2021/05/29 20:50:30;;;;;;;6.30;4.20;;;;;;;;;;12903812;23;20183;-82
2021/05/29 23:58:01;;;;;;;10.80;7.17;;;;;;;;;;13010864;22;20177;-78
